Time;durP1;ratioP1;P1;durP2;ratioP2;P2;SDS_P1;SDS_P2;PMS_P1;PMS_P2;Temp;Humidity;BMP_temperature;BMP_pressure;BME280_temperature;BME280_humidity;BME280_pressure;Samples;Min_cycle;Max_cycle;Signal;HPM_P1;HPM_P2
2021/09/19 00:00:22;;;;;;;1.38;1.27;;;12.30;99.90;;;;;;6111072;23;20411;-87
2021/09/19 00:03:06;;;;;;;1.17;1.17;;;12.20;99.90;;;;;;6130878;23;20393;-83
2021/09/19 00:05:51;;;;;;;1.10;1.10;;;12.20;99.90;;;;;;6130794;23;20405;-86
2021/09/19 00:08:35;;;;;;;1.33;1.23;;;12.20;99.90;;;;;;6130310;23;20374;-85
2021/09/19 00:11:21;;;;;;;1.48;1.38;;;12.10;99.90;;;;;;6130107;23;20442;-91
2021/09/19 00:14:05;;;;;;;1.38;1.30;;;12.10;99.90;;;;;;6150297;23;21035;-89
2021/09/19 00:16:49;;;;;;;4.50;1.60;;;12.00;99.90;;;;;;6129300;23;20405;-87
2021/09/19 00:19:34;;;;;;;1.30;1.30;;;11.90;99.90;;;;;;6149838;23;20445;-86
2021/09/19 00:22:18;;;;;;;1.10;1.10;;;11.90;99.90;;;;;;6131818;23;20394;-88
2021/09/19 00:25:04;;;;;;;1.40;1.30;;;11.90;99.90;;;;;;6132354;23;20366;-86
2021/09/19 00:27:48;;;;;;;1.30;1.30;;;11.90;99.90;;;;;;6131960;23;20419;-87
2021/09/19 00:30:33;;;;;;;1.10;1.10;;;11.90;99.90;;;;;;6152660;23;20382;-88
2021/09/19 00:33:17;;;;;;;1.27;1.17;;;11.90;99.90;;;;;;6152179;23;20354;-89
2021/09/19 00:36:02;;;;;;;1.30;1.30;;;11.90;99.90;;;;;;6110401;23;20374;-89
2021/09/19 00:38:46;;;;;;;1.13;0.98;;;12.00;99.90;;;;;;6151056;23;20405;-88
2021/09/19 00:41:30;;;;;;;1.10;1.10;;;12.00;99.90;;;;;;6130233;23;20354;-87
2021/09/19 00:44:15;;;;;;;1.07;1.07;;;12.00;99.90;;;;;;6130868;23;20393;-85
2021/09/19 00:46:59;;;;;;;0.93;0.93;;;12.00;99.90;;;;;;6130117;23;20390;-87
2021/09/19 00:49:43;;;;;;;0.95;0.95;;;12.00;99.90;;;;;;6150487;23;20366;-87
2021/09/19 00:52:28;;;;;;;1.20;1.20;;;12.00;99.90;;;;;;6149670;23;20378;-85
2021/09/19 00:55:13;;;;;;;1.50;1.40;;;12.00;99.90;;;;;;6150338;23;20457;-88
2021/09/19 00:57:57;;;;;;;1.40;1.30;;;12.00;99.90;;;;;;6149292;23;20373;-84
2021/09/19 01:00:47;;;;;;;1.00;1.00;;;11.90;99.90;;;;;;6148206;23;20382;-89
2021/09/19 01:03:31;;;;;;;1.00;1.00;;;11.90;99.90;;;;;;6151208;23;20625;-86
2021/09/19 01:06:17;;;;;;;1.00;1.00;;;12.00;99.90;;;;;;6131300;23;20390;-88
2021/09/19 01:09:02;;;;;;;1.10;1.10;;;12.00;99.90;;;;;;6150569;23;20370;-90
2021/09/19 01:11:46;;;;;;;0.85;0.85;;;12.10;99.90;;;;;;6151447;23;20572;-84
2021/09/19 01:14:31;;;;;;;1.00;1.00;;;12.00;99.90;;;;;;6151533;23;20366;-85
2021/09/19 01:17:16;;;;;;;1.55;1.45;;;12.00;99.90;;;;;;6131846;23;20394;-87
2021/09/19 01:20:01;;;;;;;1.13;1.02;;;12.00;99.90;;;;;;6128475;23;20393;-89
2021/09/19 01:23:15;;;;;;;1.10;1.10;;;12.00;99.90;;;;;;6148930;23;20362;-86
2021/09/19 01:26:00;;;;;;;0.93;0.90;;;12.00;99.90;;;;;;6155514;23;20378;-89
2021/09/19 01:28:44;;;;;;;1.15;1.10;;;12.00;99.90;;;;;;6131026;23;20382;-87
2021/09/19 01:31:29;;;;;;;0.98;0.98;;;12.00;99.90;;;;;;6149845;23;20384;-87
2021/09/19 01:34:13;;;;;;;0.82;0.82;;;12.00;99.90;;;;;;6147684;23;20374;-86
2021/09/19 01:36:58;;;;;;;0.98;0.98;;;12.00;99.90;;;;;;6149071;23;20422;-85
2021/09/19 01:39:42;;;;;;;1.37;1.27;;;11.80;99.90;;;;;;6147961;23;20370;-87
2021/09/19 01:42:27;;;;;;;1.40;1.30;;;11.90;99.90;;;;;;6148172;23;20378;-85
2021/09/19 01:45:12;;;;;;;1.30;1.20;;;12.00;99.90;;;;;;6147973;23;20378;-89
2021/09/19 01:47:56;;;;;;;1.30;1.20;;;11.90;99.90;;;;;;6149457;23;20415;-88
2021/09/19 01:50:42;;;;;;;1.10;1.10;;;11.90;99.90;;;;;;6129488;23;20369;-87
2021/09/19 01:53:26;;;;;;;1.10;1.10;;;11.90;99.90;;;;;;6151493;23;20370;-86
2021/09/19 01:56:11;;;;;;;1.00;1.00;;;11.90;99.90;;;;;;6150110;23;20362;-90
2021/09/19 01:58:55;;;;;;;1.10;1.10;;;11.90;99.90;;;;;;6150501;23;20463;-86
2021/09/19 02:01:40;;;;;;;1.17;1.17;;;11.90;99.90;;;;;;6150976;23;20414;-86
2021/09/19 02:04:24;;;;;;;1.08;1.08;;;11.90;99.90;;;;;;6146830;23;20366;-86
2021/09/19 02:07:08;;;;;;;1.02;1.02;;;12.10;99.90;;;;;;6153470;23;20390;-88
2021/09/19 02:09:52;;;;;;;1.20;1.20;;;11.90;99.90;;;;;;6131533;23;20378;-86
2021/09/19 02:12:38;;;;;;;1.30;1.20;;;11.90;99.90;;;;;;6152303;23;20419;-87
2021/09/19 02:15:22;;;;;;;1.17;1.08;;;11.80;99.90;;;;;;6171939;23;20394;-85
2021/09/19 02:18:06;;;;;;;1.17;1.10;;;11.70;99.90;;;;;;6151346;23;20423;-85
2021/09/19 02:20:51;;;;;;;1.30;1.23;;;11.70;99.90;;;;;;6128309;23;20378;-87
2021/09/19 02:23:35;;;;;;;1.10;1.10;;;11.60;99.90;;;;;;6150402;23;20966;-86
2021/09/19 02:26:20;;;;;;;1.38;1.27;;;11.70;99.90;;;;;;6150666;23;20382;-86
2021/09/19 02:29:04;;;;;;;2.08;1.33;;;11.70;99.90;;;;;;6148631;23;20390;-85
2021/09/19 02:31:48;;;;;;;1.10;1.10;;;11.70;99.90;;;;;;6151068;23;20366;-84
2021/09/19 02:34:33;;;;;;;1.20;1.10;;;11.80;99.90;;;;;;6150254;23;20374;-89
2021/09/19 02:37:17;;;;;;;1.17;1.17;;;11.80;99.90;;;;;;6151084;23;20442;-85
2021/09/19 02:40:03;;;;;;;1.17;1.17;;;11.80;99.90;;;;;;6129986;23;20373;-84
2021/09/19 02:42:50;;;;;;;1.17;1.17;;;11.80;99.90;;;;;;6131996;23;20358;-90
2021/09/19 02:45:35;;;;;;;1.80;1.70;;;11.80;99.90;;;;;;6151536;23;20374;-88
2021/09/19 02:48:19;;;;;;;1.40;1.30;;;11.70;99.90;;;;;;6130797;23;20418;-86
2021/09/19 02:51:04;;;;;;;0.90;0.90;;;11.50;99.90;;;;;;6130906;23;20371;-83
2021/09/19 02:53:48;;;;;;;1.38;1.27;;;11.50;99.90;;;;;;6150584;23;20374;-86
2021/09/19 02:56:32;;;;;;;1.42;1.33;;;11.60;99.90;;;;;;6130222;23;20354;-91
2021/09/19 02:59:18;;;;;;;1.70;1.55;;;11.60;99.90;;;;;;6149922;23;20390;-89
2021/09/19 03:02:06;;;;;;;1.05;1.02;;;11.70;99.90;;;;;;6151389;23;20410;-85
2021/09/19 03:04:50;;;;;;;1.30;1.20;;;11.70;99.90;;;;;;6147447;23;20377;-85
2021/09/19 03:07:35;;;;;;;1.60;1.50;;;11.60;99.90;;;;;;6150778;23;20430;-83
2021/09/19 03:10:20;;;;;;;1.50;1.38;;;11.60;99.90;;;;;;6149359;23;20353;-87
2021/09/19 03:13:04;;;;;;;1.10;1.10;;;11.50;99.90;;;;;;6130703;23;20374;-85
2021/09/19 03:15:48;;;;;;;1.45;1.17;;;11.60;99.90;;;;;;6150052;23;20439;-85
2021/09/19 03:18:33;;;;;;;1.08;1.08;;;11.60;99.90;;;;;;6148964;23;20366;-89
2021/09/19 03:21:17;;;;;;;1.33;1.23;;;11.60;99.90;;;;;;6146858;23;20626;-84
2021/09/19 03:24:02;;;;;;;1.40;1.30;;;11.70;99.90;;;;;;6150615;23;20370;-85
2021/09/19 03:26:46;;;;;;;1.15;1.15;;;11.60;99.90;;;;;;6148774;23;20354;-84
2021/09/19 03:29:30;;;;;;;1.00;1.00;;;11.50;99.90;;;;;;6148942;23;20370;-86
2021/09/19 03:32:15;;;;;;;1.40;1.30;;;11.40;99.90;;;;;;6146684;23;20430;-83
2021/09/19 03:34:59;;;;;;;1.30;1.30;;;11.50;99.90;;;;;;6129529;23;20402;-90
2021/09/19 03:37:43;;;;;;;1.00;1.00;;;11.40;99.90;;;;;;6130701;23;20382;-89
2021/09/19 03:40:28;;;;;;;1.10;1.10;;;11.40;99.90;;;;;;6150256;23;20398;-84
2021/09/19 03:43:12;;;;;;;1.10;1.10;;;11.30;99.90;;;;;;6152392;23;20358;-88
2021/09/19 03:45:57;;;;;;;1.35;1.25;;;11.40;99.90;;;;;;6150472;23;20671;-83
2021/09/19 03:48:41;;;;;;;1.00;1.00;;;11.40;99.90;;;;;;6151161;23;20378;-88
2021/09/19 03:51:25;;;;;;;1.40;1.30;;;11.50;99.90;;;;;;6151290;23;20358;-86
2021/09/19 03:54:10;;;;;;;1.15;1.15;;;11.50;99.90;;;;;;6129720;23;20374;-87
2021/09/19 03:56:54;;;;;;;1.15;1.15;;;11.50;99.90;;;;;;6154214;23;20366;-89
2021/09/19 03:59:38;;;;;;;1.48;1.38;;;11.50;99.90;;;;;;6150673;23;20421;-87
2021/09/19 04:02:23;;;;;;;1.30;1.23;;;11.40;99.90;;;;;;6149832;23;20437;-87
2021/09/19 04:05:09;;;;;;;0.90;0.90;;;11.30;99.90;;;;;;6150786;23;20365;-85
2021/09/19 04:07:54;;;;;;;1.20;1.20;;;11.30;99.90;;;;;;6151676;23;20382;-84
2021/09/19 04:10:39;;;;;;;1.20;1.20;;;11.40;99.90;;;;;;6129173;23;20459;-85
2021/09/19 04:13:23;;;;;;;1.13;1.08;;;11.40;99.90;;;;;;6130816;23;20385;-86
2021/09/19 04:16:08;;;;;;;1.15;1.15;;;11.40;99.90;;;;;;6152508;23;20387;-90
2021/09/19 04:18:52;;;;;;;1.20;1.10;;;11.50;99.90;;;;;;6100305;23;20374;-85
2021/09/19 04:21:37;;;;;;;1.35;1.25;;;11.50;99.90;;;;;;6142108;23;20390;-82
2021/09/19 04:24:21;;;;;;;1.30;1.20;;;11.50;99.90;;;;;;6117341;23;20373;-81
2021/09/19 04:27:06;;;;;;;1.33;1.30;;;11.50;99.90;;;;;;6116372;23;20405;-82
2021/09/19 04:29:51;;;;;;;1.27;1.20;;;11.50;99.90;;;;;;6134685;23;20832;-82
2021/09/19 04:32:36;;;;;;;1.47;1.33;;;11.40;99.90;;;;;;6111375;23;20369;-81
2021/09/19 04:35:20;;;;;;;1.10;1.00;;;11.40;99.90;;;;;;6131953;23;20365;-80
2021/09/19 04:38:04;;;;;;;1.08;1.08;;;11.40;99.90;;;;;;6131581;23;20378;-81
2021/09/19 04:40:48;;;;;;;1.10;1.10;;;11.50;99.90;;;;;;6111619;23;20463;-81
2021/09/19 04:43:33;;;;;;;1.27;1.17;;;11.60;99.90;;;;;;6134204;23;20578;-81
2021/09/19 04:46:17;;;;;;;1.40;1.30;;;11.60;99.90;;;;;;6136150;23;20370;-82
2021/09/19 04:49:01;;;;;;;1.10;1.10;;;11.60;99.90;;;;;;6117089;23;20397;-85
2021/09/19 04:51:46;;;;;;;1.50;1.40;;;11.50;99.90;;;;;;6151214;23;20383;-88
2021/09/19 04:54:30;;;;;;;1.10;1.10;;;11.40;99.90;;;;;;6129697;23;20398;-86
2021/09/19 04:57:14;;;;;;;1.38;1.10;;;11.40;99.90;;;;;;6153089;23;20366;-87
2021/09/19 04:59:59;;;;;;;1.08;1.02;;;11.40;99.90;;;;;;6130474;23;20374;-87
2021/09/19 05:02:43;;;;;;;1.30;1.30;;;11.50;99.90;;;;;;6146146;23;20366;-83
2021/09/19 05:05:28;;;;;;;1.40;1.30;;;11.50;99.90;;;;;;6134032;23;20390;-83
2021/09/19 05:08:12;;;;;;;1.23;1.23;;;11.50;99.90;;;;;;6117764;23;20421;-82
2021/09/19 05:10:57;;;;;;;1.30;1.25;;;11.40;99.90;;;;;;6144738;23;20374;-83
2021/09/19 05:13:41;;;;;;;1.40;1.30;;;11.40;99.90;;;;;;6129858;23;20358;-87
2021/09/19 05:16:26;;;;;;;1.38;1.27;;;11.40;99.90;;;;;;6170598;23;20386;-85
2021/09/19 05:19:10;;;;;;;1.50;1.40;;;11.50;99.90;;;;;;6125883;23;20389;-83
2021/09/19 05:21:54;;;;;;;1.40;1.30;;;11.50;99.90;;;;;;6124190;23;20353;-86
2021/09/19 05:24:39;;;;;;;1.08;1.08;;;11.50;99.90;;;;;;6124158;23;20365;-87
2021/09/19 05:27:23;;;;;;;1.42;1.33;;;11.50;99.90;;;;;;6126201;23;20362;-84
2021/09/19 05:30:08;;;;;;;1.50;1.40;;;11.50;99.90;;;;;;6144227;23;20386;-85
2021/09/19 05:32:53;;;;;;;1.17;1.13;;;11.50;99.90;;;;;;6143693;23;20378;-86
2021/09/19 05:35:37;;;;;;;1.33;1.33;;;11.60;99.90;;;;;;6122569;23;20435;-84
2021/09/19 05:38:21;;;;;;;1.40;1.30;;;11.60;99.90;;;;;;6142724;23;20406;-85
2021/09/19 05:41:06;;;;;;;1.63;1.52;;;11.60;99.90;;;;;;6142904;23;21099;-84
2021/09/19 05:43:50;;;;;;;1.75;1.65;;;11.70;99.90;;;;;;6123708;23;20462;-85
2021/09/19 05:46:35;;;;;;;1.30;1.27;;;11.70;99.90;;;;;;6122705;23;20369;-82
2021/09/19 05:49:19;;;;;;;1.40;1.30;;;11.70;99.90;;;;;;6122447;23;20383;-84
2021/09/19 05:52:04;;;;;;;1.50;1.40;;;11.80;99.90;;;;;;6123195;23;20624;-86
2021/09/19 05:54:49;;;;;;;1.23;1.13;;;11.80;99.90;;;;;;6143689;23;20402;-86
2021/09/19 05:57:34;;;;;;;1.45;1.35;;;11.90;99.90;;;;;;6122283;23;20453;-82
2021/09/19 06:00:18;;;;;;;1.52;1.42;;;11.90;99.90;;;;;;6144922;23;20377;-86
2021/09/19 06:03:03;;;;;;;1.20;1.20;;;11.90;99.90;;;;;;6144256;23;20445;-83
2021/09/19 06:05:47;;;;;;;1.42;1.33;;;12.00;99.90;;;;;;6123652;23;20382;-83
2021/09/19 06:08:32;;;;;;;1.30;1.30;;;12.10;99.90;;;;;;6143764;23;20375;-82
2021/09/19 06:11:16;;;;;;;1.53;1.43;;;12.00;99.90;;;;;;6144731;23;20398;-83
2021/09/19 06:14:01;;;;;;;1.58;1.48;;;12.10;99.90;;;;;;6124374;23;20618;-83
2021/09/19 06:16:45;;;;;;;1.10;1.10;;;12.10;99.90;;;;;;6123822;23;20397;-84
2021/09/19 06:19:30;;;;;;;1.50;1.40;;;12.10;99.90;;;;;;6123152;23;20412;-85
2021/09/19 06:22:14;;;;;;;1.50;1.40;;;12.20;99.90;;;;;;6146879;23;20370;-87
2021/09/19 06:24:59;;;;;;;2.00;1.80;;;12.30;99.90;;;;;;6147238;23;20370;-83
2021/09/19 06:27:43;;;;;;;1.47;1.37;;;12.20;99.90;;;;;;6145123;23;20383;-86
2021/09/19 06:30:28;;;;;;;1.60;1.50;;;12.30;99.90;;;;;;6127976;23;20417;-89
2021/09/19 06:33:12;;;;;;;1.60;1.50;;;12.20;99.90;;;;;;6126419;23;20424;-88
2021/09/19 06:35:56;;;;;;;2.03;1.83;;;12.20;99.90;;;;;;6122996;23;20390;-83
2021/09/19 06:38:41;;;;;;;1.52;1.42;;;12.20;99.90;;;;;;6146667;23;20444;-82
2021/09/19 06:41:25;;;;;;;1.63;1.43;;;12.20;99.90;;;;;;6145734;23;20385;-88
2021/09/19 06:44:10;;;;;;;1.63;1.52;;;12.30;99.90;;;;;;6144829;23;20440;-84
2021/09/19 06:46:56;;;;;;;1.40;1.30;;;12.40;99.90;;;;;;6124336;23;20370;-81
2021/09/19 06:49:40;;;;;;;1.50;1.40;;;12.40;99.90;;;;;;6111771;23;20820;-86
2021/09/19 06:52:25;;;;;;;5.70;1.57;;;12.40;99.90;;;;;;6165966;23;20519;-83
2021/09/19 06:55:10;;;;;;;1.63;1.52;;;12.40;99.90;;;;;;6141651;23;20891;-86
2021/09/19 06:57:57;;;;;;;1.40;1.30;;;12.50;99.90;;;;;;6145936;23;20385;-85
2021/09/19 07:00:41;;;;;;;1.58;1.48;;;12.60;99.90;;;;;;6126059;23;20381;-87
2021/09/19 07:03:25;;;;;;;1.45;1.35;;;12.60;99.90;;;;;;6147785;23;20374;-89
2021/09/19 07:06:10;;;;;;;1.60;1.50;;;12.50;99.90;;;;;;6140135;23;20378;-81
2021/09/19 07:08:55;;;;;;;1.70;1.60;;;12.50;99.90;;;;;;6129654;23;20426;-82
2021/09/19 07:11:40;;;;;;;1.70;1.60;;;12.60;99.90;;;;;;6131240;23;20378;-85
2021/09/19 07:14:24;;;;;;;2.10;1.70;;;12.70;99.90;;;;;;6129669;23;20382;-84
2021/09/19 07:17:08;;;;;;;1.60;1.50;;;12.80;99.90;;;;;;6113510;23;20415;-81
2021/09/19 07:19:53;;;;;;;1.10;1.10;;;12.90;99.90;;;;;;6133644;23;20371;-83
2021/09/19 07:22:40;;;;;;;2.40;1.65;;;13.00;99.90;;;;;;6134623;23;20446;-83
2021/09/19 07:25:24;;;;;;;1.50;1.40;;;13.10;99.90;;;;;;6113285;23;20419;-83
2021/09/19 07:28:09;;;;;;;1.98;1.48;;;13.20;99.90;;;;;;6131378;23;20998;-87
2021/09/19 07:30:54;;;;;;;1.60;1.50;;;13.20;99.90;;;;;;6134462;23;20427;-81
2021/09/19 07:33:38;;;;;;;1.60;1.50;;;13.30;99.90;;;;;;6133951;23;20373;-82
2021/09/19 07:36:25;;;;;;;2.40;1.38;;;13.40;99.90;;;;;;6116271;23;20453;-82
2021/09/19 07:39:10;;;;;;;2.30;2.10;;;13.50;99.90;;;;;;6116005;23;20374;-86
2021/09/19 07:41:54;;;;;;;1.63;1.52;;;13.40;99.90;;;;;;6136081;23;20415;-90
2021/09/19 07:44:39;;;;;;;2.00;1.80;;;13.30;99.90;;;;;;6127545;23;20370;-85
2021/09/19 07:47:23;;;;;;;1.70;1.60;;;13.40;99.90;;;;;;6145931;23;20390;-84
2021/09/19 07:50:08;;;;;;;2.17;1.97;;;13.50;99.90;;;;;;6145863;23;20373;-86
2021/09/19 07:52:52;;;;;;;1.73;1.63;;;13.60;99.90;;;;;;6122935;23;20362;-88
2021/09/19 07:55:37;;;;;;;1.80;1.70;;;13.70;99.90;;;;;;6120887;23;20369;-86
2021/09/19 07:58:21;;;;;;;2.38;1.80;;;13.70;99.90;;;;;;6141970;23;20385;-87
2021/09/19 08:01:05;;;;;;;1.70;1.60;;;13.80;99.90;;;;;;6122917;23;20426;-90
2021/09/19 08:03:49;;;;;;;1.40;1.30;;;14.00;99.90;;;;;;6102533;23;20366;-82
2021/09/19 08:06:34;;;;;;;6.00;1.40;;;14.10;99.90;;;;;;6124438;23;20393;-83
2021/09/19 08:09:19;;;;;;;1.23;1.23;;;14.30;99.90;;;;;;6143235;23;20386;-87
2021/09/19 08:12:04;;;;;;;1.33;1.30;;;14.40;99.90;;;;;;6160065;23;20470;-83
2021/09/19 08:14:48;;;;;;;1.40;1.37;;;14.50;99.90;;;;;;6140304;23;20403;-90
2021/09/19 08:17:33;;;;;;;1.77;1.67;;;14.50;99.90;;;;;;6122115;23;20399;-92
2021/09/19 08:35:05;;;;;;;1.63;1.52;;;15.20;99.90;;;;;;6211607;22;20410;-91
2021/09/19 08:38:15;;;;;;;1.58;1.50;;;15.30;99.90;;;;;;6196204;22;20386;-91
2021/09/19 08:40:59;;;;;;;1.65;1.55;;;15.50;99.90;;;;;;6175336;23;20436;-89
2021/09/19 08:43:45;;;;;;;2.40;1.60;;;15.60;99.90;;;;;;6113185;23;20355;-93
2021/09/19 08:46:30;;;;;;;1.50;1.30;;;15.70;99.90;;;;;;6174517;22;20383;-89
2021/09/19 08:49:16;;;;;;;1.90;1.80;;;15.80;99.90;;;;;;6152853;23;20382;-90
2021/09/19 09:15:37;;;;;;;1.65;1.50;;;16.80;99.90;;;;;;6232230;22;20368;-88
2021/09/19 09:18:29;;;;;;;1.40;1.30;;;17.00;99.90;;;;;;6189718;23;20386;-90
2021/09/19 09:21:23;;;;;;;1.63;1.52;;;16.90;99.90;;;;;;6191585;23;20394;-92
2021/09/19 09:24:08;;;;;;;1.50;1.40;;;17.10;99.90;;;;;;6151216;23;20386;-92
2021/09/19 09:26:53;;;;;;;1.52;1.40;;;17.10;99.90;;;;;;6192283;22;20397;-93
2021/09/19 09:29:37;;;;;;;1.40;1.30;;;17.20;99.90;;;;;;6152701;22;20374;-93
2021/09/19 09:32:22;;;;;;;1.50;1.40;;;17.30;99.90;;;;;;6194853;22;20367;-91
2021/09/19 09:35:11;;;;;;;1.30;1.23;;;17.50;99.90;;;;;;6151612;22;20367;-89
2021/09/19 09:37:55;;;;;;;1.20;1.20;;;17.60;99.90;;;;;;6152185;22;20379;-92
2021/09/19 09:40:40;;;;;;;1.43;1.33;;;17.70;99.90;;;;;;6153489;22;20367;-89
2021/09/19 09:43:24;;;;;;;1.60;1.50;;;17.70;99.90;;;;;;6172908;22;20386;-92
2021/09/19 09:46:10;;;;;;;1.30;1.20;;;17.60;99.90;;;;;;6174580;22;20403;-92
2021/09/19 09:48:55;;;;;;;1.52;1.42;;;17.70;99.90;;;;;;6171130;22;20382;-91
2021/09/19 09:51:39;;;;;;;1.77;1.67;;;17.90;99.90;;;;;;6151996;22;20363;-90
2021/09/19 09:54:24;;;;;;;1.65;1.55;;;18.00;99.90;;;;;;6152632;22;20459;-93
2021/09/19 09:57:09;;;;;;;1.50;1.40;;;18.30;99.90;;;;;;6151525;22;20415;-91
2021/09/19 09:59:54;;;;;;;1.33;1.23;;;18.40;99.90;;;;;;6171829;22;20390;-93
2021/09/19 10:02:40;;;;;;;1.30;1.20;;;18.30;99.90;;;;;;6173487;22;20383;-92
2021/09/19 10:05:26;;;;;;;1.20;1.20;;;18.70;99.90;;;;;;6153047;22;20351;-91
2021/09/19 10:08:11;;;;;;;1.13;1.13;;;18.70;99.90;;;;;;6152858;22;20378;-91
2021/09/19 10:10:56;;;;;;;1.40;1.20;;;18.90;99.90;;;;;;6151250;22;20362;-92
2021/09/19 10:13:44;;;;;;;1.50;1.40;;;19.00;99.90;;;;;;6174485;22;20390;-91
2021/09/19 10:16:29;;;;;;;1.50;1.40;;;19.30;99.90;;;;;;6155492;22;20433;-91
2021/09/19 10:19:14;;;;;;;1.33;1.23;;;19.30;99.90;;;;;;6152421;22;20367;-93
2021/09/19 10:21:58;;;;;;;1.55;1.40;;;19.40;99.90;;;;;;6153378;22;20359;-92
2021/09/19 10:24:43;;;;;;;2.08;1.40;;;19.20;99.90;;;;;;6150628;22;20401;-92
2021/09/19 10:27:32;;;;;;;1.80;1.70;;;19.10;99.90;;;;;;6154281;22;20361;-93
2021/09/19 10:30:18;;;;;;;1.40;1.35;;;19.30;99.90;;;;;;6153721;22;20370;-91
2021/09/19 10:33:04;;;;;;;1.33;1.30;;;19.50;99.90;;;;;;6173097;22;20362;-91
2021/09/19 10:35:51;;;;;;;1.40;1.30;;;19.50;99.90;;;;;;6153406;22;20420;-92
2021/09/19 10:38:38;;;;;;;1.50;1.40;;;19.50;99.90;;;;;;6150446;22;20414;-92
2021/09/19 10:41:22;;;;;;;1.17;1.17;;;19.40;99.90;;;;;;6193118;22;20391;-92
2021/09/19 10:44:07;;;;;;;1.50;1.40;;;19.60;99.90;;;;;;6152491;22;20395;-91
2021/09/19 10:46:51;;;;;;;1.52;1.30;;;19.90;99.90;;;;;;6152496;22;20503;-91
2021/09/19 10:49:36;;;;;;;1.52;1.42;;;20.00;99.90;;;;;;6172941;22;20411;-92
2021/09/19 10:52:22;;;;;;;1.38;1.27;;;19.90;99.90;;;;;;6151243;22;20362;-92
2021/09/19 10:55:21;;;;;;;1.50;1.40;;;19.70;99.90;;;;;;6152599;22;20390;-91
2021/09/19 10:58:12;;;;;;;1.30;1.20;;;19.60;99.90;;;;;;6172341;22;20574;-93
2021/09/19 11:01:19;;;;;;;2.97;1.50;;;20.10;99.90;;;;;;6172078;22;20398;-92
2021/09/19 11:04:15;;;;;;;1.10;1.10;;;20.20;99.90;;;;;;6175121;22;20363;-92
2021/09/19 11:07:00;;;;;;;1.40;1.30;;;20.10;99.90;;;;;;6160011;22;20383;-93
2021/09/19 11:09:47;;;;;;;1.35;1.25;;;19.90;99.90;;;;;;6193173;22;20378;-92
2021/09/19 11:12:43;;;;;;;1.05;1.05;;;19.90;99.90;;;;;;6113585;22;20391;-92
2021/09/19 11:15:28;;;;;;;1.20;1.05;;;19.70;99.90;;;;;;6188713;23;20374;-92
2021/09/19 11:18:25;;;;;;;1.20;1.10;;;19.60;99.90;;;;;;6192775;23;20374;-91
2021/09/19 11:21:14;;;;;;;1.10;1.10;;;19.40;99.90;;;;;;6214116;22;20383;-91
2021/09/19 11:24:06;;;;;;;1.08;1.08;;;19.30;99.90;;;;;;6193617;23;20379;-92
2021/09/19 11:26:51;;;;;;;1.25;1.23;;;19.20;99.90;;;;;;6194604;23;20382;-92
2021/09/19 11:29:36;;;;;;;1.30;1.20;;;19.20;99.90;;;;;;6214211;23;20453;-90
2021/09/19 11:32:20;;;;;;;1.40;1.30;;;19.30;99.90;;;;;;6180556;23;20359;-91
2021/09/19 11:35:06;;;;;;;1.20;1.10;;;19.40;99.90;;;;;;6194038;23;20362;-90
2021/09/19 11:38:00;;;;;;;1.10;0.90;;;19.50;99.90;;;;;;6194208;23;20393;-92
2021/09/19 11:40:45;;;;;;;0.90;0.90;;;19.40;99.90;;;;;;6193559;23;20419;-92
2021/09/19 11:43:32;;;;;;;1.20;1.10;;;19.40;99.90;;;;;;6189559;23;20399;-91
2021/09/19 11:46:18;;;;;;;2.08;1.88;;;19.30;99.90;;;;;;6188956;23;20358;-88
2021/09/19 11:49:03;;;;;;;0.98;0.98;;;19.20;99.90;;;;;;6187652;23;20386;-90
2021/09/19 11:51:47;;;;;;;1.30;1.20;;;19.30;99.90;;;;;;6183594;23;20386;-89
2021/09/19 11:54:32;;;;;;;1.50;1.40;;;18.90;99.90;;;;;;6184679;23;20357;-90
2021/09/19 11:57:16;;;;;;;1.30;1.20;;;18.60;99.90;;;;;;6205074;23;20448;-88
2021/09/19 12:00:05;;;;;;;1.20;1.10;;;18.60;99.90;;;;;;6182835;23;20370;-91
2021/09/19 12:02:55;;;;;;;1.10;1.10;;;18.60;99.90;;;;;;6207861;23;20439;-92
2021/09/19 12:05:40;;;;;;;1.20;1.20;;;18.60;99.90;;;;;;6205972;23;20378;-89
2021/09/19 12:08:29;;;;;;;2.08;1.20;;;18.70;99.90;;;;;;6206101;23;20440;-91
2021/09/19 12:11:14;;;;;;;1.30;1.20;;;18.80;99.90;;;;;;6185931;23;20367;-91
2021/09/19 12:13:58;;;;;;;0.93;0.93;;;18.70;99.90;;;;;;6185615;23;20366;-90
2021/09/19 12:16:42;;;;;;;0.93;0.93;;;19.00;99.90;;;;;;6144476;23;20399;-92
2021/09/19 12:19:27;;;;;;;0.90;0.90;;;18.90;99.90;;;;;;6184952;23;20374;-90
2021/09/19 12:22:15;;;;;;;1.58;1.42;;;18.70;99.90;;;;;;6165953;23;20531;-92
2021/09/19 12:25:02;;;;;;;1.70;1.23;;;18.70;99.90;;;;;;6184053;23;20355;-87
2021/09/19 12:27:47;;;;;;;1.00;1.00;;;18.60;99.90;;;;;;6148028;23;20413;-90
2021/09/19 12:30:41;;;;;;;1.20;1.10;;;18.40;99.90;;;;;;6145507;23;20358;-89
2021/09/19 12:33:26;;;;;;;0.83;0.83;;;18.40;99.90;;;;;;6147759;23;20359;-89
2021/09/19 12:36:10;;;;;;;1.10;1.10;;;18.30;99.90;;;;;;6145008;23;20754;-90
2021/09/19 12:38:55;;;;;;;1.00;1.00;;;18.20;99.90;;;;;;6145317;23;20416;-88
2021/09/19 12:41:39;;;;;;;1.37;1.27;;;18.20;99.90;;;;;;6145055;23;20721;-89
2021/09/19 12:44:25;;;;;;;1.30;1.20;;;18.20;99.90;;;;;;6165600;23;20394;-89
2021/09/19 12:47:10;;;;;;;1.30;1.20;;;18.20;99.90;;;;;;6166433;23;20652;-91
2021/09/19 12:49:54;;;;;;;1.00;1.00;;;17.90;99.90;;;;;;6143712;23;20351;-89
2021/09/19 12:52:39;;;;;;;1.50;1.40;;;17.70;99.90;;;;;;6182427;23;20395;-90
2021/09/19 12:55:23;;;;;;;0.98;0.98;;;17.70;99.90;;;;;;6145759;23;20395;-91
2021/09/19 12:58:08;;;;;;;1.30;1.20;;;17.70;99.90;;;;;;6146084;23;20418;-90
2021/09/19 13:00:52;;;;;;;1.40;1.30;;;17.70;99.90;;;;;;6166025;23;20378;-90
2021/09/19 13:03:38;;;;;;;1.40;1.30;;;17.60;99.90;;;;;;6165808;23;20374;-90
2021/09/19 13:06:22;;;;;;;1.15;1.08;;;17.60;99.90;;;;;;6144706;23;20379;-92
2021/09/19 13:09:06;;;;;;;1.23;1.15;;;17.60;99.90;;;;;;6144300;23;20407;-90
2021/09/19 13:11:51;;;;;;;1.38;1.20;;;17.60;99.90;;;;;;6144336;23;20366;-90
2021/09/19 13:14:35;;;;;;;1.10;1.10;;;17.50;99.90;;;;;;6148128;23;20370;-86
2021/09/19 13:17:19;;;;;;;3.13;2.53;;;17.50;99.90;;;;;;6207473;23;20410;-91
2021/09/19 13:20:04;;;;;;;2.90;1.77;;;17.50;99.90;;;;;;6185545;23;20378;-88
2021/09/19 13:22:48;;;;;;;1.67;1.57;;;17.50;99.90;;;;;;6207526;23;20454;-88
2021/09/19 13:25:33;;;;;;;1.40;1.30;;;17.50;99.90;;;;;;6184921;23;20367;-90
2021/09/19 13:28:17;;;;;;;0.93;0.93;;;17.60;99.90;;;;;;6186017;23;20378;-91
2021/09/19 13:31:02;;;;;;;1.30;1.17;;;17.40;99.90;;;;;;6185389;23;20378;-86
2021/09/19 13:33:46;;;;;;;1.60;1.50;;;17.40;99.90;;;;;;6209248;23;20422;-89
2021/09/19 13:36:30;;;;;;;1.60;1.50;;;17.40;99.90;;;;;;6185811;23;20362;-91
2021/09/19 13:39:16;;;;;;;1.40;1.30;;;17.50;99.90;;;;;;6207318;23;20387;-87
2021/09/19 13:42:00;;;;;;;1.15;1.15;;;17.30;99.90;;;;;;6184780;23;20359;-85
2021/09/19 13:44:45;;;;;;;2.45;1.30;;;17.20;99.90;;;;;;6185580;23;20423;-88
2021/09/19 13:47:32;;;;;;;1.20;1.20;;;17.20;99.90;;;;;;6205299;23;20359;-90
2021/09/19 13:50:17;;;;;;;1.20;1.10;;;17.20;99.90;;;;;;6183082;23;20399;-92
2021/09/19 13:53:02;;;;;;;4.57;1.47;;;17.20;99.90;;;;;;6186687;23;20375;-90
2021/09/19 13:55:47;;;;;;;1.52;1.42;;;17.20;99.90;;;;;;6187257;23;20358;-90
2021/09/19 13:58:32;;;;;;;3.00;1.38;;;17.20;99.90;;;;;;6207610;23;20366;-88
2021/09/19 14:01:16;;;;;;;1.20;1.10;;;17.30;99.90;;;;;;6184730;23;20406;-89
2021/09/19 14:04:00;;;;;;;1.15;1.08;;;17.20;99.90;;;;;;6185901;23;20886;-84
2021/09/19 14:06:45;;;;;;;1.48;1.25;;;17.20;99.90;;;;;;6229538;23;20367;-90
2021/09/19 14:09:30;;;;;;;0.90;0.90;;;17.20;99.90;;;;;;6184625;23;20371;-90
2021/09/19 14:12:16;;;;;;;1.20;1.20;;;17.20;99.90;;;;;;6186817;23;27144;-87
2021/09/19 14:15:00;;;;;;;1.38;1.27;;;17.10;99.90;;;;;;6183980;23;20397;-89
2021/09/19 14:17:45;;;;;;;1.80;1.38;;;17.20;99.90;;;;;;6186599;23;20386;-90
2021/09/19 14:20:31;;;;;;;1.00;1.00;;;17.20;99.90;;;;;;6185536;23;20375;-92
2021/09/19 14:23:15;;;;;;;1.30;1.25;;;17.30;99.90;;;;;;6186145;23;20435;-89
2021/09/19 14:26:00;;;;;;;2.47;1.05;;;17.30;99.90;;;;;;6183166;23;20426;-87
2021/09/19 14:28:45;;;;;;;1.30;1.25;;;17.30;99.90;;;;;;6179605;23;20471;-91
2021/09/19 14:31:30;;;;;;;1.10;1.10;;;17.20;99.90;;;;;;6202315;23;20395;-90
2021/09/19 14:34:14;;;;;;;1.10;1.10;;;17.20;99.90;;;;;;6206100;23;20375;-89
2021/09/19 14:36:59;;;;;;;1.05;1.05;;;17.10;99.90;;;;;;6184634;23;20402;-90
2021/09/19 14:39:43;;;;;;;1.20;1.20;;;17.10;99.90;;;;;;6184555;23;20367;-92
2021/09/19 14:42:28;;;;;;;1.27;0.93;;;17.20;99.90;;;;;;6189894;23;20394;-89
2021/09/19 14:45:13;;;;;;;1.05;1.05;;;17.20;99.90;;;;;;6188798;23;20358;-92
2021/09/19 14:47:57;;;;;;;1.05;1.05;;;17.20;99.90;;;;;;6188454;23;20431;-89
2021/09/19 14:50:41;;;;;;;1.50;0.90;;;17.20;99.90;;;;;;6187266;23;20394;-90
2021/09/19 14:53:26;;;;;;;1.48;1.30;;;17.20;99.90;;;;;;6188625;23;20429;-90
2021/09/19 14:56:10;;;;;;;1.25;1.17;;;17.20;99.90;;;;;;6173434;23;20371;-89
2021/09/19 14:58:54;;;;;;;0.90;0.90;;;17.20;99.90;;;;;;6208661;23;20379;-88